createdAt,value
2023-04-12T00:01:33.811Z,9.94
2023-04-12T00:04:06.934Z,9.90
2023-04-12T00:06:41.262Z,9.81
2023-04-12T00:09:14.435Z,9.83
2023-04-12T00:11:47.465Z,9.85
2023-04-12T00:14:21.035Z,9.75
2023-04-12T00:16:53.967Z,9.81
2023-04-12T00:19:27.557Z,9.86
2023-04-12T00:22:01.834Z,9.97
2023-04-12T00:24:35.138Z,9.95
2023-04-12T00:27:08.474Z,10.05
2023-04-12T00:29:42.272Z,9.99
2023-04-12T00:32:15.474Z,9.98
2023-04-12T00:34:48.374Z,10.07
2023-04-12T00:37:22.587Z,10.02
2023-04-12T00:39:55.393Z,10.10
2023-04-12T00:42:28.444Z,10.14
2023-04-12T00:45:02.052Z,10.12
2023-04-12T00:47:37.566Z,10.10
2023-04-12T00:50:12.407Z,10.16
2023-04-12T00:52:46.867Z,10.13
2023-04-12T00:55:19.766Z,10.16
2023-04-12T00:57:52.719Z,10.15
2023-04-12T01:00:25.710Z,10.12
2023-04-12T01:02:59.250Z,10.14
2023-04-12T01:05:36.739Z,10.20
2023-04-12T01:08:19.994Z,10.07
2023-04-12T01:11:02.163Z,10.07
2023-04-12T01:13:41.215Z,10.13
2023-04-12T01:16:23.177Z,10.10
2023-04-12T01:19:00.789Z,10.10
2023-04-12T01:21:46.141Z,10.00
2023-04-12T01:24:31.472Z,10.07
2023-04-12T01:27:04.588Z,9.95
2023-04-12T01:29:39.725Z,10.00
2023-04-12T01:32:13.535Z,10.00
2023-04-12T01:34:46.798Z,9.91
2023-04-12T01:37:20.879Z,9.97
2023-04-12T01:39:54.089Z,9.95
2023-04-12T01:42:26.889Z,9.94
2023-04-12T01:45:04.254Z,9.82
2023-04-12T01:47:37.393Z,9.90
2023-04-12T01:50:22.013Z,9.76
2023-04-12T01:53:02.946Z,9.80
2023-04-12T01:55:39.156Z,9.82
2023-04-12T01:58:13.090Z,9.74
2023-04-12T02:00:48.420Z,9.66
2023-04-12T02:03:23.437Z,9.69
2023-04-12T02:05:57.599Z,9.73
2023-04-12T02:08:30.915Z,9.67
2023-04-12T02:11:09.249Z,9.72
2023-04-12T02:13:42.125Z,9.59
2023-04-12T02:16:17.770Z,9.69
2023-04-12T02:18:50.928Z,9.63
2023-04-12T02:21:23.849Z,9.66
2023-04-12T02:23:56.793Z,9.63
2023-04-12T02:26:29.676Z,9.67
2023-04-12T02:29:02.669Z,9.60
2023-04-12T02:31:39.004Z,9.55
2023-04-12T02:34:17.745Z,9.50
2023-04-12T02:36:55.114Z,9.55
2023-04-12T02:39:29.121Z,9.53
2023-04-12T02:42:03.147Z,9.50
2023-04-12T02:44:35.987Z,9.40
2023-04-12T02:47:20.578Z,9.31
2023-04-12T02:49:55.714Z,9.28
2023-04-12T02:52:29.896Z,9.31
2023-04-12T02:55:10.039Z,9.31
2023-04-12T02:57:43.163Z,9.38
2023-04-12T03:00:16.690Z,9.15
2023-04-12T03:02:54.161Z,9.15
2023-04-12T03:05:31.367Z,9.16
2023-04-12T03:08:06.015Z,9.19
2023-04-12T03:10:52.182Z,9.13
2023-04-12T03:13:25.333Z,9.13
2023-04-12T03:16:01.016Z,9.15
2023-04-12T03:18:41.489Z,9.01
2023-04-12T03:21:14.412Z,8.97
2023-04-12T03:23:48.473Z,8.93
2023-04-12T03:26:26.425Z,8.91
2023-04-12T03:29:08.903Z,8.93
2023-04-12T03:31:44.299Z,8.96
2023-04-12T03:34:18.594Z,8.94
2023-04-12T03:36:56.248Z,8.91
2023-04-12T03:39:44.758Z,8.88
2023-04-12T03:42:31.781Z,8.95
2023-04-12T03:45:09.443Z,8.86
2023-04-12T03:47:42.921Z,8.88
2023-04-12T03:50:18.044Z,8.84
2023-04-12T03:52:57.224Z,8.83
2023-04-12T03:55:37.344Z,8.82
2023-04-12T03:58:13.246Z,8.91
2023-04-12T04:00:50.544Z,8.91
2023-04-12T04:03:26.757Z,8.90
2023-04-12T04:06:11.538Z,8.79
2023-04-12T04:08:44.606Z,8.81
2023-04-12T04:11:18.688Z,8.84
2023-04-12T04:13:56.652Z,8.81
2023-04-12T04:16:30.835Z,8.86
2023-04-12T04:19:04.062Z,8.95
2023-04-12T04:21:40.471Z,8.91
2023-04-12T04:24:14.231Z,8.89
2023-04-12T04:26:54.160Z,8.80
2023-04-12T04:29:31.577Z,8.87
2023-04-12T04:32:07.780Z,8.89
2023-04-12T04:34:41.606Z,8.89
2023-04-12T04:37:21.165Z,8.87
2023-04-12T04:39:55.938Z,8.91
2023-04-12T04:42:29.653Z,8.86
2023-04-12T04:45:13.923Z,8.86
2023-04-12T04:47:50.148Z,8.84
2023-04-12T04:50:23.768Z,8.84
2023-04-12T04:53:00.057Z,8.82
2023-04-12T04:55:34.193Z,8.87
2023-04-12T04:58:07.219Z,8.82
2023-04-12T05:00:40.866Z,8.84
2023-04-12T05:03:14.467Z,8.78
2023-04-12T05:05:49.475Z,8.80
2023-04-12T05:08:23.664Z,8.80
2023-04-12T05:10:58.184Z,8.83
2023-04-12T05:13:34.685Z,8.83
2023-04-12T05:16:09.030Z,8.85
2023-04-12T05:18:41.968Z,8.80
2023-04-12T05:21:14.801Z,8.76
2023-04-12T05:23:51.522Z,8.76
2023-04-12T05:26:24.568Z,8.75
2023-04-12T05:28:58.220Z,8.67
2023-04-12T05:31:31.311Z,8.60
2023-04-12T05:34:08.267Z,8.56
2023-04-12T05:36:47.610Z,8.52
2023-04-12T05:39:22.243Z,8.47
2023-04-12T05:41:57.061Z,8.56
2023-04-12T05:44:31.247Z,8.48
2023-04-12T05:47:05.080Z,8.50
2023-04-12T05:49:38.300Z,8.44
2023-04-12T05:52:14.476Z,8.50
2023-04-12T05:54:48.896Z,8.44
2023-04-12T05:57:23.403Z,8.42
2023-04-12T05:59:56.365Z,8.46
2023-04-12T06:02:29.383Z,8.37
2023-04-12T06:05:03.719Z,8.41
2023-04-12T06:07:37.103Z,8.37
2023-04-12T06:10:12.846Z,8.50
2023-04-12T06:12:45.865Z,8.39
2023-04-12T06:15:20.920Z,8.43
2023-04-12T06:17:58.424Z,8.52
2023-04-12T06:20:31.332Z,8.45
2023-04-12T06:23:04.303Z,8.53
2023-04-12T06:25:38.978Z,8.54
2023-04-12T06:28:11.974Z,8.62
2023-04-12T06:30:51.078Z,8.58
2023-04-12T06:33:24.056Z,8.63
2023-04-12T06:35:58.168Z,8.56
2023-04-12T06:38:31.213Z,8.56
2023-04-12T06:41:05.830Z,8.61
2023-04-12T06:43:38.840Z,8.66
2023-04-12T06:46:11.822Z,8.59
2023-04-12T06:48:44.667Z,8.68
2023-04-12T06:51:18.631Z,8.59
2023-04-12T06:53:51.480Z,8.57
2023-04-12T06:56:26.058Z,8.58
2023-04-12T06:58:59.402Z,8.65
2023-04-12T07:01:32.553Z,8.59
2023-04-12T07:04:05.910Z,8.69
2023-04-12T07:06:39.015Z,8.78
2023-04-12T07:09:12.217Z,8.83
2023-04-12T07:11:48.487Z,8.76
2023-04-12T07:14:21.326Z,8.66
2023-04-12T07:16:54.244Z,8.73
2023-04-12T07:19:27.444Z,8.80
2023-04-12T07:22:00.734Z,8.85
2023-04-12T07:24:33.784Z,8.89
2023-04-12T07:27:08.155Z,8.93
2023-04-12T07:29:41.226Z,8.91
2023-04-12T07:32:14.010Z,8.82
2023-04-12T07:34:46.948Z,8.84
2023-04-12T07:37:20.291Z,8.92
2023-04-12T07:39:53.241Z,9.04
2023-04-12T07:42:27.551Z,9.19
2023-04-12T07:45:00.519Z,9.33
2023-04-12T07:47:33.786Z,9.17
2023-04-12T07:50:08.364Z,9.18
2023-04-12T07:52:41.336Z,9.27
2023-04-12T07:55:14.226Z,9.28
2023-04-12T07:57:48.337Z,9.33
2023-04-12T08:00:22.452Z,9.39
2023-04-12T08:02:56.807Z,9.33
2023-04-12T08:05:29.981Z,9.48
2023-04-12T08:08:04.113Z,9.43
2023-04-12T08:10:37.711Z,9.62
2023-04-12T08:13:11.924Z,9.69
2023-04-12T08:15:47.082Z,9.66
2023-04-12T08:18:19.726Z,9.60
2023-04-12T08:20:52.830Z,9.55
2023-04-12T08:23:27.195Z,9.40
2023-04-12T08:26:03.861Z,9.37
2023-04-12T08:28:39.686Z,9.43
2023-04-12T08:31:13.320Z,9.31
2023-04-12T08:33:46.581Z,9.52
2023-04-12T08:36:19.665Z,9.61
2023-04-12T08:38:55.447Z,9.78
2023-04-12T08:41:28.548Z,9.95
2023-04-12T08:44:03.410Z,9.96
2023-04-12T08:46:37.036Z,10.16
2023-04-12T08:49:11.514Z,10.40
2023-04-12T08:51:44.753Z,10.36
2023-04-12T08:54:17.723Z,10.62
2023-04-12T08:56:50.664Z,10.73
2023-04-12T08:59:25.912Z,10.75
2023-04-12T09:02:00.398Z,10.52
2023-04-12T09:04:33.421Z,10.47
2023-04-12T09:07:06.772Z,10.33
2023-04-12T09:09:43.504Z,10.54
2023-04-12T09:12:20.275Z,10.45
2023-04-12T09:15:09.509Z,10.46
2023-04-12T09:17:43.136Z,10.32
2023-04-12T09:20:26.107Z,10.51
2023-04-12T09:22:59.682Z,10.29
2023-04-12T09:25:41.124Z,10.31
2023-04-12T09:28:22.503Z,10.47
2023-04-12T09:30:58.402Z,10.37
2023-04-12T09:33:36.911Z,10.48
2023-04-12T09:36:13.532Z,10.47
2023-04-12T09:39:01.756Z,10.40
2023-04-12T09:41:35.285Z,10.35
2023-04-12T09:44:08.401Z,10.43
2023-04-12T09:46:51.812Z,10.15
2023-04-12T09:49:38.115Z,10.07
2023-04-12T09:52:15.339Z,9.99
2023-04-12T09:54:49.677Z,10.08
2023-04-12T09:57:24.851Z,10.08
2023-04-12T10:00:03.710Z,10.15
2023-04-12T10:02:47.712Z,10.40
2023-04-12T10:05:26.245Z,10.68
2023-04-12T10:08:01.250Z,11.00
2023-04-12T10:10:36.793Z,11.23
2023-04-12T10:13:11.307Z,11.19
2023-04-12T10:15:49.557Z,11.08
2023-04-12T10:18:28.156Z,11.33
2023-04-12T10:21:02.885Z,11.59
2023-04-12T10:23:36.447Z,11.75
2023-04-12T10:26:09.621Z,11.68
2023-04-12T10:28:46.713Z,11.92
2023-04-12T10:31:30.066Z,12.20
2023-04-12T10:34:04.576Z,12.12
2023-04-12T10:36:53.987Z,12.28
2023-04-12T10:39:39.406Z,13.03
2023-04-12T10:42:20.499Z,12.52
2023-04-12T10:44:55.990Z,12.57
2023-04-12T10:48:04.201Z,13.00
2023-04-12T10:50:38.654Z,12.76
2023-04-12T10:53:27.233Z,12.55
2023-04-12T10:56:00.541Z,12.63
2023-04-12T10:59:07.011Z,12.45
2023-04-12T11:02:12.242Z,12.36
2023-04-12T11:05:09.589Z,12.16
2023-04-12T11:07:57.264Z,12.21
2023-04-12T11:10:47.404Z,11.73
2023-04-12T11:13:30.632Z,11.20
2023-04-12T11:16:04.796Z,10.18
2023-04-12T11:18:40.257Z,10.58
2023-04-12T11:21:15.701Z,10.28
2023-04-12T11:23:49.993Z,10.05
2023-04-12T11:26:23.058Z,10.10
2023-04-12T11:28:56.498Z,10.45
2023-04-12T11:31:29.697Z,10.09
2023-04-12T11:34:02.526Z,10.08
2023-04-12T11:36:35.479Z,10.52
2023-04-12T11:39:09.978Z,11.28
2023-04-12T11:41:45.275Z,11.84
2023-04-12T11:44:18.981Z,12.52
2023-04-12T11:46:52.485Z,13.08
2023-04-12T11:49:25.913Z,13.31
2023-04-12T11:52:06.095Z,13.15
2023-04-12T11:54:43.121Z,13.62
2023-04-12T11:57:17.748Z,13.52
2023-04-12T11:59:51.311Z,13.49
2023-04-12T12:02:25.210Z,13.19
2023-04-12T12:04:59.629Z,13.49
2023-04-12T12:07:33.026Z,13.33
2023-04-12T12:10:09.174Z,13.16
2023-04-12T12:12:45.087Z,12.89
2023-04-12T12:15:17.950Z,13.15
2023-04-12T12:17:53.020Z,12.68
2023-04-12T12:20:27.256Z,13.28
2023-04-12T12:23:00.108Z,12.05
2023-04-12T12:25:34.639Z,12.41
2023-04-12T12:28:14.366Z,12.84
2023-04-12T12:30:47.307Z,12.68
2023-04-12T12:33:21.898Z,13.72
2023-04-12T12:35:59.696Z,13.48
2023-04-12T12:38:37.625Z,13.47
2023-04-12T12:41:17.947Z,14.24
2023-04-12T12:43:52.899Z,14.18
2023-04-12T12:48:59.296Z,14.05
2023-04-12T12:51:32.480Z,14.58
2023-04-12T12:54:07.915Z,13.55
2023-04-12T12:56:42.175Z,14.86
2023-04-12T12:59:17.360Z,15.69
2023-04-12T13:01:50.784Z,16.08
2023-04-12T13:04:23.892Z,15.45
2023-04-12T13:06:56.804Z,15.90
2023-04-12T13:09:29.803Z,16.00
2023-04-12T13:12:04.102Z,15.85
2023-04-12T13:14:36.915Z,15.24
2023-04-12T13:17:10.320Z,15.24
2023-04-12T13:19:43.256Z,15.58
2023-04-12T13:22:16.638Z,16.72
2023-04-12T13:24:49.909Z,17.00
2023-04-12T13:27:24.072Z,17.54
2023-04-12T13:29:56.869Z,14.90
2023-04-12T13:32:29.987Z,16.92
2023-04-12T13:35:04.334Z,17.75
2023-04-12T13:37:37.375Z,16.67
2023-04-12T13:40:10.977Z,16.32
2023-04-12T13:42:45.283Z,17.12
2023-04-12T13:45:18.177Z,16.26
2023-04-12T13:47:51.183Z,17.49
2023-04-12T13:50:24.009Z,17.99
2023-04-12T13:52:56.833Z,18.13
2023-04-12T13:55:29.932Z,17.29
2023-04-12T13:58:04.082Z,16.11
2023-04-12T14:00:37.253Z,16.21
2023-04-12T14:03:10.147Z,16.30
2023-04-12T14:05:43.076Z,15.16
2023-04-12T14:08:15.903Z,14.95
2023-04-12T14:10:48.796Z,14.04
2023-04-12T14:13:23.415Z,12.86
2023-04-12T14:15:57.368Z,12.96
2023-04-12T14:18:30.362Z,11.72
2023-04-12T14:21:03.969Z,11.80
2023-04-12T14:23:38.141Z,11.50
2023-04-12T14:26:17.173Z,11.81
2023-04-12T14:28:51.564Z,11.47
2023-04-12T14:31:24.782Z,11.73
2023-04-12T14:33:57.861Z,9.91
2023-04-12T14:36:31.743Z,10.23
2023-04-12T14:39:07.728Z,10.36
2023-04-12T14:41:42.346Z,10.33
2023-04-12T14:44:18.791Z,10.21
2023-04-12T14:46:53.153Z,10.55
2023-04-12T14:49:26.736Z,10.78
2023-04-12T14:51:59.887Z,11.53
2023-04-12T14:54:32.720Z,10.68
2023-04-12T14:57:05.556Z,11.19
2023-04-12T14:59:39.960Z,11.44
2023-04-12T15:02:12.966Z,11.50
2023-04-12T15:04:49.178Z,11.81
2023-04-12T15:07:22.113Z,11.52
2023-04-12T15:09:57.301Z,11.64
2023-04-12T15:12:30.084Z,10.92
2023-04-12T15:15:06.343Z,11.61
2023-04-12T15:17:39.433Z,10.99
2023-04-12T15:20:17.145Z,10.78
2023-04-12T15:22:50.500Z,11.28
2023-04-12T15:25:23.852Z,10.85
2023-04-12T15:27:57.353Z,11.33
2023-04-12T15:30:32.633Z,10.80
2023-04-12T15:33:05.533Z,11.28
2023-04-12T15:35:38.396Z,11.20
2023-04-12T15:38:15.112Z,11.41
2023-04-12T15:40:55.591Z,11.58
2023-04-12T15:43:29.111Z,11.44
2023-04-12T15:46:03.529Z,11.24
2023-04-12T15:48:39.311Z,10.98
2023-04-12T15:51:13.768Z,10.94
2023-04-12T15:53:46.601Z,10.75
2023-04-12T15:56:23.850Z,10.65
2023-04-12T15:58:57.928Z,10.77
2023-04-12T16:01:32.661Z,11.01
2023-04-12T16:04:06.968Z,11.46
2023-04-12T16:06:40.245Z,12.23
2023-04-12T16:09:13.381Z,14.38
2023-04-12T16:11:47.987Z,15.81
2023-04-12T16:14:20.892Z,16.98
2023-04-12T16:16:55.134Z,16.36
2023-04-12T16:19:28.159Z,20.69
2023-04-12T16:22:01.668Z,18.42
2023-04-12T16:24:34.508Z,17.29
2023-04-12T16:27:08.263Z,14.78
2023-04-12T16:29:41.258Z,13.78
2023-04-12T16:32:15.709Z,12.69
2023-04-12T16:34:48.759Z,12.83
2023-04-12T16:37:21.882Z,12.12
2023-04-12T16:39:54.684Z,12.07
2023-04-12T16:42:31.548Z,11.80
2023-04-12T16:45:05.460Z,11.93
2023-04-12T16:47:41.096Z,10.85
2023-04-12T16:50:14.088Z,10.98
2023-04-12T16:52:47.388Z,10.54
2023-04-12T16:55:20.530Z,10.25
2023-04-12T16:57:53.737Z,9.93
2023-04-12T17:00:29.172Z,9.95
2023-04-12T17:03:03.890Z,9.79
2023-04-12T17:05:37.148Z,9.79
2023-04-12T17:08:09.919Z,9.89
2023-04-12T17:10:42.959Z,10.16
2023-04-12T17:13:19.434Z,9.99
2023-04-12T17:15:53.398Z,10.32
2023-04-12T17:18:27.620Z,10.06
2023-04-12T17:21:00.660Z,10.52
2023-04-12T17:23:33.478Z,10.59
2023-04-12T17:26:08.250Z,10.58
2023-04-12T17:28:41.495Z,12.90
2023-04-12T17:31:15.378Z,19.62
2023-04-12T17:33:49.606Z,19.27
2023-04-12T17:36:22.544Z,17.65
2023-04-12T17:38:57.053Z,12.96
2023-04-12T17:41:29.959Z,11.82
2023-04-12T17:44:02.828Z,11.76
2023-04-12T17:46:36.434Z,10.74
2023-04-12T17:49:10.644Z,10.94
2023-04-12T17:51:43.400Z,10.76
2023-04-12T17:54:16.801Z,10.66
2023-04-12T17:56:50.249Z,10.50
2023-04-12T17:59:23.246Z,10.40
2023-04-12T18:01:57.229Z,10.34
2023-04-12T18:04:32.033Z,10.39
2023-04-12T18:07:08.607Z,10.26
2023-04-12T18:09:44.876Z,10.37
2023-04-12T18:12:17.788Z,9.80
2023-04-12T18:14:50.766Z,9.87
2023-04-12T18:17:25.750Z,9.71
2023-04-12T18:20:02.623Z,10.01
2023-04-12T18:22:36.058Z,10.03
2023-04-12T18:25:10.105Z,9.84
2023-04-12T18:27:43.032Z,9.47
2023-04-12T18:30:17.309Z,9.57
2023-04-12T18:32:50.393Z,9.77
2023-04-12T18:35:24.759Z,9.87
2023-04-12T18:37:57.609Z,9.84
2023-04-12T18:40:30.482Z,9.85
2023-04-12T18:43:03.703Z,9.73
2023-04-12T18:45:40.045Z,9.67
2023-04-12T18:48:12.905Z,9.62
2023-04-12T18:50:49.377Z,9.55
2023-04-12T18:53:22.226Z,9.26
2023-04-12T18:55:55.117Z,9.12
2023-04-12T18:58:36.997Z,9.03
2023-04-12T19:01:19.460Z,9.13
2023-04-12T19:03:52.796Z,8.98
2023-04-12T19:06:27.084Z,8.81
2023-04-12T19:08:59.888Z,8.65
2023-04-12T19:11:37.204Z,8.47
2023-04-12T19:14:10.479Z,8.64
2023-04-12T19:16:43.424Z,8.72
2023-04-12T19:19:16.684Z,8.68
2023-04-12T19:21:51.085Z,8.71
2023-04-12T19:24:24.014Z,8.62
2023-04-12T19:26:57.474Z,8.62
2023-04-12T19:29:30.277Z,8.40
2023-04-12T19:32:06.312Z,8.48
2023-04-12T19:34:39.305Z,8.46
2023-04-12T19:37:13.525Z,8.44
2023-04-12T19:39:46.694Z,8.42
2023-04-12T19:42:19.523Z,8.23
2023-04-12T19:44:52.655Z,8.18
2023-04-12T19:47:25.853Z,8.23
2023-04-12T19:49:58.805Z,7.88
2023-04-12T19:52:33.243Z,7.83
2023-04-12T19:55:07.149Z,7.95
2023-04-12T19:57:41.545Z,7.81
2023-04-12T20:00:19.289Z,7.92
2023-04-12T20:02:53.864Z,7.86
2023-04-12T20:05:27.511Z,7.99
2023-04-12T20:08:02.350Z,7.75
2023-04-12T20:10:35.277Z,7.37
2023-04-12T20:13:15.129Z,7.44
2023-04-12T20:15:48.633Z,7.39
2023-04-12T20:18:21.691Z,7.19
2023-04-12T20:20:57.522Z,7.19
2023-04-12T20:23:31.934Z,7.11
2023-04-12T20:26:05.430Z,7.14
2023-04-12T20:28:38.467Z,6.60
2023-04-12T20:31:12.748Z,6.75
2023-04-12T20:33:45.682Z,6.88
2023-04-12T20:36:18.575Z,6.78
2023-04-12T20:38:53.596Z,6.86
2023-04-12T20:41:26.257Z,6.82
2023-04-12T20:43:59.400Z,6.66
2023-04-12T20:46:36.830Z,6.36
2023-04-12T20:49:10.181Z,6.53
2023-04-12T20:51:46.745Z,6.58
2023-04-12T20:54:24.164Z,6.69
2023-04-12T20:56:58.829Z,6.86
2023-04-12T20:59:31.900Z,6.89
2023-04-12T21:02:04.883Z,6.99
2023-04-12T21:04:39.590Z,6.93
2023-04-12T21:07:12.624Z,6.93
2023-04-12T21:09:47.088Z,6.95
2023-04-12T21:12:19.886Z,6.95
2023-04-12T21:14:52.716Z,6.85
2023-04-12T21:17:30.084Z,6.94
2023-04-12T21:20:13.574Z,6.92
2023-04-12T21:22:56.253Z,6.93
2023-04-12T21:25:35.380Z,6.93
2023-04-12T21:28:13.447Z,6.98
2023-04-12T21:30:54.485Z,7.01
2023-04-12T21:33:27.363Z,6.95
2023-04-12T21:36:00.211Z,6.83
2023-04-12T21:38:33.099Z,6.71
2023-04-12T21:41:08.076Z,6.70
2023-04-12T21:43:41.453Z,6.64
2023-04-12T21:46:14.568Z,6.71
2023-04-12T21:48:47.870Z,6.66
2023-04-12T21:51:20.933Z,6.82
2023-04-12T21:53:53.781Z,6.83
2023-04-12T21:56:28.396Z,6.83
2023-04-12T21:59:01.919Z,6.80
2023-04-12T22:01:34.909Z,6.77
2023-04-12T22:04:07.907Z,6.72
2023-04-12T22:06:41.041Z,6.73
2023-04-12T22:09:13.978Z,6.65
2023-04-12T22:11:49.022Z,6.61
2023-04-12T22:14:23.748Z,6.73
2023-04-12T22:16:57.488Z,6.70
2023-04-12T22:19:30.472Z,6.72
2023-04-12T22:22:04.015Z,6.67
2023-04-12T22:24:37.244Z,6.71
2023-04-12T22:27:11.585Z,6.74
2023-04-12T22:29:44.511Z,6.83
2023-04-12T22:32:17.301Z,6.80
2023-04-12T22:34:58.106Z,6.79
2023-04-12T22:37:41.970Z,6.89
2023-04-12T22:40:14.859Z,6.94
2023-04-12T22:42:49.431Z,6.96
2023-04-12T22:45:22.271Z,6.80
2023-04-12T22:47:55.141Z,6.76
2023-04-12T22:50:27.996Z,6.78
2023-04-12T22:53:02.876Z,6.67
2023-04-12T22:55:47.925Z,6.65
2023-04-12T22:58:22.201Z,6.61
2023-04-12T23:00:55.300Z,6.65
2023-04-12T23:03:28.669Z,6.62
2023-04-12T23:06:01.979Z,6.60
2023-04-12T23:08:34.929Z,6.55
2023-04-12T23:11:11.528Z,6.43
2023-04-12T23:13:48.041Z,6.48
2023-04-12T23:16:21.246Z,6.45
2023-04-12T23:19:09.040Z,6.40
2023-04-12T23:21:47.197Z,6.28
2023-04-12T23:24:24.579Z,6.30
2023-04-12T23:27:10.064Z,6.36
2023-04-12T23:30:07.800Z,6.19
2023-04-12T23:32:41.536Z,5.94
2023-04-12T23:35:15.358Z,6.35
2023-04-12T23:37:48.495Z,6.36
2023-04-12T23:40:21.518Z,6.26
2023-04-12T23:42:54.318Z,6.33
2023-04-12T23:45:29.065Z,6.38
2023-04-12T23:48:01.912Z,6.44
2023-04-12T23:50:34.825Z,6.42
2023-04-12T23:53:07.950Z,6.44
2023-04-12T23:55:42.407Z,6.46
2023-04-12T23:58:15.618Z,6.51
